createdAt,value
2019-03-24T00:03:07.628Z,418.40
2019-03-24T00:08:13.802Z,269.60
2019-03-24T00:13:19.764Z,182.07
2019-03-24T00:18:25.942Z,133.30
2019-03-24T00:23:32.043Z,95.20
2019-03-24T00:28:37.786Z,84.53
2019-03-24T00:33:43.560Z,74.27
2019-03-24T00:43:54.886Z,65.97
2019-03-24T00:49:00.446Z,66.12
2019-03-24T00:54:06.720Z,64.83
2019-03-24T00:59:12.809Z,63.27
2019-03-24T01:04:20.027Z,64.17
2019-03-24T01:29:53.760Z,128.00
2019-03-24T01:34:59.905Z,371.53
2019-03-24T01:40:05.678Z,434.13
2019-03-24T01:45:11.741Z,744.27
2019-03-24T01:50:18.119Z,389.45
2019-03-24T01:55:24.072Z,239.67
2019-03-24T02:00:30.209Z,132.37
2019-03-24T02:05:35.746Z,101.53
2019-03-24T02:10:41.499Z,81.00
2019-03-24T02:15:47.278Z,79.12
2019-03-24T02:20:52.857Z,69.57
2019-03-24T02:25:58.703Z,69.87
2019-03-24T02:31:04.570Z,63.10
2019-03-24T02:36:10.540Z,65.60
2019-03-24T02:41:16.302Z,64.30
2019-03-24T02:46:24.561Z,66.40
2019-03-24T02:56:34.932Z,269.50
2019-03-24T03:01:41.185Z,530.33
2019-03-24T03:06:46.666Z,468.67
2019-03-24T03:11:52.438Z,334.23
2019-03-24T03:16:58.388Z,188.57
2019-03-24T03:22:04.157Z,130.57
2019-03-24T03:27:09.690Z,95.53
2019-03-24T03:32:15.342Z,79.13
2019-03-24T03:37:21.034Z,70.87
2019-03-24T03:42:26.853Z,71.60
2019-03-24T03:47:32.985Z,68.57
2019-03-24T03:52:38.754Z,66.77
2019-03-24T03:57:44.753Z,67.93
2019-03-24T04:03:02.692Z,64.12
2019-03-24T04:08:08.357Z,62.10
2019-03-24T04:13:14.739Z,61.97
2019-03-24T04:18:20.461Z,62.80
2019-03-24T04:23:26.094Z,66.10
2019-03-24T04:28:31.739Z,60.80
2019-03-24T04:33:37.493Z,60.77
2019-03-24T04:43:48.619Z,64.77
2019-03-24T04:48:54.402Z,62.90
2019-03-24T04:59:05.604Z,61.83
2019-03-24T05:04:11.283Z,61.30
2019-03-24T05:09:16.833Z,62.90
2019-03-24T05:14:22.699Z,62.03
2019-03-24T05:19:28.363Z,63.53
2019-03-24T05:24:34.009Z,66.30
2019-03-24T05:29:39.698Z,60.07
2019-03-24T05:39:50.995Z,67.20
2019-03-24T05:44:56.701Z,62.90
2019-03-24T05:50:02.276Z,61.88
2019-03-24T05:55:07.814Z,60.75
2019-03-24T06:00:13.698Z,61.73
2019-03-24T06:05:19.067Z,65.33
2019-03-24T06:10:24.715Z,61.47
2019-03-24T06:15:30.402Z,64.55
2019-03-24T06:20:36.049Z,65.17
2019-03-24T06:25:41.699Z,68.77
2019-03-24T06:30:47.455Z,66.60
2019-03-24T06:35:53.319Z,66.03
2019-03-24T06:40:58.973Z,66.40
2019-03-24T06:46:04.658Z,67.83
2019-03-24T06:51:10.324Z,62.90
2019-03-24T06:56:15.681Z,66.33
2019-03-24T07:01:21.438Z,59.87
2019-03-24T07:06:27.126Z,67.90
2019-03-24T07:11:32.669Z,67.10
2019-03-24T07:16:38.320Z,63.77
2019-03-24T07:21:44.033Z,60.50
2019-03-24T07:26:49.648Z,64.58
2019-03-24T07:37:00.913Z,59.80
2019-03-24T07:42:06.653Z,63.33
2019-03-24T07:47:12.324Z,58.60
2019-03-24T07:52:18.019Z,63.60
2019-03-24T07:57:23.644Z,66.17
2019-03-24T08:07:34.860Z,60.43
2019-03-24T08:12:40.557Z,57.97
2019-03-24T08:17:46.287Z,58.63
2019-03-24T08:22:51.848Z,57.45
2019-03-24T08:27:57.509Z,58.80
2019-03-24T08:33:03.296Z,60.00
2019-03-24T08:38:08.840Z,57.38
2019-03-24T08:43:14.723Z,56.70
2019-03-24T08:48:20.479Z,58.40
2019-03-24T08:53:26.269Z,58.07
2019-03-24T08:58:31.805Z,61.28
2019-03-24T09:03:37.778Z,54.40
2019-03-24T09:08:43.649Z,55.50
2019-03-24T09:13:50.050Z,56.57
2019-03-24T09:18:55.686Z,57.80
2019-03-24T09:29:06.707Z,51.67
2019-03-24T09:34:13.314Z,52.43
2019-03-24T09:39:18.883Z,50.30
2019-03-24T09:44:24.521Z,51.67
2019-03-24T09:49:30.285Z,50.80
2019-03-24T09:54:36.766Z,54.97
2019-03-24T09:59:42.440Z,51.77
2019-03-24T10:05:07.017Z,49.53
2019-03-24T10:10:12.800Z,50.67
2019-03-24T10:15:18.667Z,48.17
2019-03-24T10:20:24.351Z,46.70
2019-03-24T10:25:30.637Z,48.35
2019-03-24T10:30:36.452Z,47.33
2019-03-24T10:35:41.741Z,44.87
2019-03-24T10:40:47.497Z,42.00
2019-03-24T10:45:53.284Z,46.55
2019-03-24T10:50:58.826Z,47.87
2019-03-24T10:56:04.702Z,42.67
2019-03-24T11:01:10.461Z,43.67
2019-03-24T11:06:16.051Z,44.08
2019-03-24T11:11:21.689Z,46.13
2019-03-24T11:16:27.451Z,41.40
2019-03-24T11:26:38.685Z,42.30
2019-03-24T11:31:44.343Z,41.67
2019-03-24T11:36:49.991Z,39.17
2019-03-24T11:41:55.772Z,41.20
2019-03-24T11:47:01.745Z,39.80
2019-03-24T11:52:07.427Z,39.07
2019-03-24T11:57:13.086Z,37.40
2019-03-24T12:02:18.734Z,38.80
2019-03-24T12:07:24.519Z,38.00
2019-03-24T12:12:30.286Z,37.43
2019-03-24T12:17:35.829Z,38.63
2019-03-24T12:27:46.750Z,36.60
2019-03-24T12:32:52.618Z,33.23
2019-03-24T12:37:58.280Z,33.83
2019-03-24T12:48:09.318Z,34.40
2019-03-24T12:53:14.877Z,35.23
2019-03-24T12:58:20.544Z,34.37
2019-03-24T13:03:26.294Z,32.43
2019-03-24T13:08:31.861Z,32.38
2019-03-24T13:13:37.782Z,29.80
2019-03-24T13:18:43.484Z,31.47
2019-03-24T13:23:49.338Z,30.12
2019-03-24T13:28:54.710Z,31.02
2019-03-24T13:34:00.535Z,28.37
2019-03-24T13:39:05.830Z,29.70
2019-03-24T13:44:11.700Z,30.17
2019-03-24T13:49:17.492Z,30.53
2019-03-24T13:54:23.749Z,31.63
2019-03-24T13:59:29.828Z,32.07
2019-03-24T14:04:35.805Z,31.57
2019-03-24T14:09:41.558Z,28.43
2019-03-24T14:14:47.346Z,28.80
2019-03-24T14:19:52.968Z,29.30
2019-03-24T14:24:58.660Z,27.33
2019-03-24T14:30:05.005Z,25.23
2019-03-24T14:35:10.611Z,28.70
2019-03-24T14:40:16.375Z,428.07
2019-03-24T14:45:22.128Z,118.30
2019-03-24T14:50:27.785Z,255.43
2019-03-24T14:55:33.853Z,486.53
2019-03-24T15:00:40.837Z,330.67
2019-03-24T15:05:46.656Z,664.00
2019-03-24T15:10:52.488Z,524.60
2019-03-24T15:15:58.486Z,407.23
2019-03-24T15:21:06.006Z,414.50
2019-03-24T15:26:11.837Z,655.47
2019-03-24T15:31:17.816Z,274.33
2019-03-24T15:36:26.845Z,251.73
2019-03-24T15:41:32.968Z,439.93
2019-03-24T15:46:38.786Z,627.90
2019-03-24T15:56:50.086Z,279.43
2019-03-24T16:01:56.143Z,336.27
2019-03-24T16:07:17.039Z,459.18
2019-03-24T16:12:23.134Z,491.37
2019-03-24T16:17:28.847Z,426.45
2019-03-24T16:22:34.609Z,381.33
2019-03-24T16:27:41.408Z,514.53
2019-03-24T16:32:47.023Z,314.88
2019-03-24T16:37:52.746Z,477.20
2019-03-24T16:42:58.808Z,533.20
2019-03-24T16:48:04.669Z,576.40
2019-03-24T16:53:10.746Z,522.13
2019-03-24T16:58:16.822Z,582.90
2019-03-24T17:03:22.417Z,459.10
2019-03-24T17:08:28.557Z,406.77
2019-03-24T17:13:35.799Z,425.07
2019-03-24T17:18:41.950Z,573.73
2019-03-24T17:23:47.800Z,691.37
2019-03-24T17:33:59.141Z,614.73
2019-03-24T17:39:05.401Z,786.53
2019-03-24T17:49:18.806Z,828.87
2019-03-24T17:54:24.950Z,826.43
2019-03-24T17:59:30.825Z,645.03
2019-03-24T18:04:36.816Z,530.10
2019-03-24T18:09:42.765Z,736.05
2019-03-24T18:14:48.836Z,754.83
2019-03-24T18:19:55.634Z,630.07
2019-03-24T18:30:06.984Z,616.17
2019-03-24T18:35:12.731Z,609.00
2019-03-24T18:40:18.501Z,531.53
2019-03-24T18:50:29.713Z,433.23
2019-03-24T18:55:35.582Z,326.90
2019-03-24T19:00:41.617Z,254.77
2019-03-24T19:05:47.436Z,339.10
2019-03-24T19:10:54.218Z,471.07
2019-03-24T19:15:59.777Z,454.27
2019-03-24T19:21:05.641Z,464.00
2019-03-24T19:26:11.428Z,211.18
2019-03-24T19:31:17.198Z,282.27
2019-03-24T19:36:22.837Z,364.87
2019-03-24T19:46:34.770Z,471.83
2019-03-24T19:51:40.760Z,432.77
2019-03-24T19:56:46.816Z,522.53
2019-03-24T20:01:52.894Z,339.77
2019-03-24T20:06:58.666Z,369.60
2019-03-24T20:12:04.530Z,455.20
2019-03-24T20:17:10.433Z,269.80
2019-03-24T20:27:21.749Z,1327.73
2019-03-24T20:32:27.986Z,1192.43
2019-03-24T20:37:33.672Z,828.17
2019-03-24T20:42:39.428Z,737.40
2019-03-24T20:52:50.862Z,635.43
2019-03-24T20:57:56.845Z,755.53
2019-03-24T21:03:02.802Z,629.70
2019-03-24T21:08:08.769Z,759.53
2019-03-24T21:13:15.160Z,736.10
2019-03-24T21:18:20.862Z,641.97
2019-03-24T21:23:29.819Z,595.07
2019-03-24T21:28:34.992Z,697.00
2019-03-24T21:33:40.781Z,656.10
2019-03-24T21:38:46.962Z,685.07
2019-03-24T21:43:52.724Z,711.87
2019-03-24T21:54:04.143Z,662.57
2019-03-24T21:59:09.821Z,824.50
2019-03-24T22:04:17.403Z,832.40
2019-03-24T22:09:35.031Z,673.23
2019-03-24T22:14:40.833Z,745.30
2019-03-24T22:19:46.849Z,695.13
2019-03-24T22:24:53.071Z,636.83
2019-03-24T22:29:58.759Z,581.70
2019-03-24T22:35:05.550Z,722.30
2019-03-24T22:40:12.016Z,708.80
2019-03-24T22:45:17.785Z,646.53
2019-03-24T22:50:24.362Z,575.27
2019-03-24T22:55:31.581Z,816.77
2019-03-24T23:00:48.145Z,950.70
2019-03-24T23:05:54.235Z,907.20
2019-03-24T23:11:00.133Z,1285.90
2019-03-24T23:16:09.130Z,1356.00
2019-03-24T23:21:14.861Z,1334.07
2019-03-24T23:31:26.479Z,1195.10
2019-03-24T23:51:51.785Z,1254.85
2019-03-24T23:57:03.937Z,1226.75
